createdAt,value
2018-05-03T00:01:11.669Z,18.20
2018-05-03T00:03:40.580Z,18.20
2018-05-03T00:06:09.494Z,18.20
2018-05-03T00:11:19.036Z,18.10
2018-05-03T00:13:47.916Z,18.10
2018-05-03T00:16:17.260Z,18.10
2018-05-03T00:18:46.926Z,18.10
2018-05-03T00:21:16.941Z,18.00
2018-05-03T00:23:46.815Z,18.00
2018-05-03T00:26:33.938Z,18.00
2018-05-03T00:29:03.281Z,18.10
2018-05-03T00:31:34.587Z,18.10
2018-05-03T00:34:03.798Z,18.00
2018-05-03T00:36:32.681Z,18.00
2018-05-03T00:39:01.643Z,18.00
2018-05-03T00:41:31.988Z,17.90
2018-05-03T00:44:01.316Z,17.90
2018-05-03T00:46:30.555Z,17.90
2018-05-03T00:48:59.482Z,17.90
2018-05-03T00:51:28.810Z,17.90
2018-05-03T00:53:57.754Z,17.90
2018-05-03T00:56:26.732Z,17.80
2018-05-03T00:58:56.362Z,17.60
2018-05-03T01:01:25.268Z,17.60
2018-05-03T01:03:54.129Z,17.60
2018-05-03T01:06:23.788Z,17.40
2018-05-03T01:08:52.701Z,17.40
2018-05-03T01:11:21.616Z,17.40
2018-05-03T01:13:51.284Z,17.50
2018-05-03T01:16:20.178Z,17.40
2018-05-03T01:18:50.645Z,17.50
2018-05-03T01:21:20.335Z,17.50
2018-05-03T01:23:49.295Z,17.40
2018-05-03T01:26:18.314Z,17.40
2018-05-03T01:28:47.345Z,17.40
2018-05-03T01:31:16.228Z,17.40
2018-05-03T01:33:45.140Z,17.40
2018-05-03T01:36:35.638Z,17.30
2018-05-03T01:39:04.631Z,17.30
2018-05-03T01:41:33.546Z,17.20
2018-05-03T01:44:02.934Z,17.10
2018-05-03T01:46:31.813Z,17.00
2018-05-03T01:49:00.748Z,17.00
2018-05-03T01:51:29.657Z,16.90
2018-05-03T01:53:59.367Z,16.70
2018-05-03T01:56:29.042Z,16.80
2018-05-03T01:58:57.902Z,16.70
2018-05-03T02:01:26.853Z,16.70
2018-05-03T02:03:56.508Z,16.70
2018-05-03T02:06:26.306Z,16.60
2018-05-03T02:08:55.172Z,16.70
2018-05-03T02:11:24.835Z,16.60
2018-05-03T02:13:53.716Z,16.50
2018-05-03T02:16:22.636Z,16.60
2018-05-03T02:18:51.526Z,16.60
2018-05-03T02:21:20.505Z,16.60
2018-05-03T02:23:49.421Z,16.50
2018-05-03T02:26:18.343Z,16.60
2018-05-03T02:28:47.269Z,16.60
2018-05-03T02:31:16.184Z,16.60
2018-05-03T02:33:45.069Z,16.60
2018-05-03T02:36:13.999Z,16.50
2018-05-03T02:38:43.706Z,16.50
2018-05-03T02:41:12.615Z,16.50
2018-05-03T02:43:41.579Z,16.50
2018-05-03T02:46:11.258Z,16.50
2018-05-03T02:48:40.144Z,16.50
2018-05-03T02:51:09.037Z,16.40
2018-05-03T02:53:37.891Z,16.40
2018-05-03T02:56:06.812Z,16.40
2018-05-03T02:58:53.468Z,16.50
2018-05-03T03:01:45.818Z,16.50
2018-05-03T03:04:38.188Z,16.40
2018-05-03T03:11:17.050Z,16.40
2018-05-03T03:17:35.224Z,16.40
2018-05-03T03:20:27.917Z,16.40
2018-05-03T03:23:23.704Z,16.40
2018-05-03T03:29:37.864Z,16.30
2018-05-03T03:32:24.417Z,16.30
2018-05-03T03:38:55.173Z,16.30
2018-05-03T03:41:36.956Z,16.20
2018-05-03T03:44:24.245Z,16.20
2018-05-03T03:46:53.177Z,16.10
2018-05-03T03:49:25.726Z,16.20
2018-05-03T03:51:54.790Z,16.20
2018-05-03T03:54:24.033Z,16.20
2018-05-03T03:56:53.761Z,16.30
2018-05-03T03:59:23.741Z,16.20
2018-05-03T04:01:52.669Z,16.30
2018-05-03T04:04:21.543Z,16.40
2018-05-03T04:06:51.278Z,16.40
2018-05-03T04:09:20.163Z,16.30
2018-05-03T04:11:49.090Z,16.40
2018-05-03T04:14:18.036Z,16.40
2018-05-03T04:16:46.926Z,16.50
2018-05-03T04:19:33.759Z,16.60
2018-05-03T04:22:20.664Z,16.60
2018-05-03T04:25:08.162Z,16.70
2018-05-03T04:27:42.320Z,16.70
2018-05-03T04:30:11.777Z,16.90
2018-05-03T04:32:47.664Z,17.40
2018-05-03T04:35:17.047Z,17.40
2018-05-03T04:37:53.542Z,17.90
2018-05-03T05:22:53.362Z,26.30
2018-05-03T05:25:22.286Z,26.00
2018-05-03T05:27:51.927Z,25.70
2018-05-03T05:30:20.862Z,25.60
2018-05-03T05:32:49.784Z,26.00
2018-05-03T05:35:18.721Z,26.30
2018-05-03T05:37:47.648Z,26.90
2018-05-03T05:40:17.484Z,27.50
2018-05-03T05:42:46.427Z,27.40
2018-05-03T05:45:15.357Z,27.70
2018-05-03T05:47:45.030Z,27.50
2018-05-03T05:50:13.899Z,27.50
2018-05-03T05:52:42.856Z,28.00
2018-05-03T05:55:11.729Z,28.50
2018-05-03T05:57:41.442Z,30.00
2018-05-03T06:00:11.121Z,29.80
2018-05-03T06:02:39.989Z,29.80
2018-05-03T06:05:08.935Z,29.80
2018-05-03T06:07:37.894Z,30.30
2018-05-03T06:10:07.587Z,31.20
2018-05-03T06:12:36.501Z,31.10
2018-05-03T06:15:05.396Z,31.70
2018-05-03T06:17:35.096Z,32.80
2018-05-03T06:20:03.993Z,32.70
2018-05-03T06:22:33.697Z,33.70
2018-05-03T06:25:02.915Z,33.60
2018-05-03T06:27:32.608Z,35.60
2018-05-03T06:30:01.553Z,35.50
2018-05-03T06:32:31.206Z,36.20
2018-05-03T06:35:00.095Z,36.10
2018-05-03T06:37:29.010Z,36.70
2018-05-03T06:39:57.906Z,37.10
2018-05-03T06:42:27.548Z,37.20
2018-05-03T06:44:56.470Z,37.10
2018-05-03T06:47:25.366Z,37.40
2018-05-03T06:49:54.262Z,37.90
2018-05-03T06:52:23.153Z,37.80
2018-05-03T06:54:52.778Z,38.00
2018-05-03T06:57:22.464Z,38.20
2018-05-03T06:59:51.353Z,38.10
2018-05-03T07:02:20.274Z,38.90
2018-05-03T07:04:49.191Z,39.50
2018-05-03T07:07:18.091Z,39.90
2018-05-03T07:09:46.988Z,39.90
2018-05-03T07:12:15.880Z,40.50
2018-05-03T07:14:44.772Z,39.80
2018-05-03T07:17:13.696Z,39.20
2018-05-03T07:19:42.583Z,39.10
2018-05-03T07:22:11.504Z,39.40
2018-05-03T07:24:40.432Z,40.20
2018-05-03T07:27:09.352Z,40.80
2018-05-03T07:29:38.271Z,41.20
2018-05-03T07:32:07.124Z,41.00
2018-05-03T07:34:36.006Z,41.00
2018-05-03T07:37:04.926Z,40.80
2018-05-03T07:39:34.585Z,41.20
2018-05-03T07:42:03.552Z,41.20
2018-05-03T07:44:32.458Z,41.40
2018-05-03T07:47:01.322Z,41.00
2018-05-03T07:49:30.273Z,40.90
2018-05-03T07:51:59.187Z,41.10
2018-05-03T07:54:28.082Z,40.30
2018-05-03T07:56:57.017Z,39.50
2018-05-03T07:59:25.983Z,38.70
2018-05-03T08:01:54.868Z,38.60
2018-05-03T08:04:23.757Z,38.50
2018-05-03T08:06:52.760Z,38.30
2018-05-03T08:09:22.398Z,38.50
2018-05-03T08:11:51.372Z,38.50
2018-05-03T08:14:20.261Z,37.80
2018-05-03T08:16:49.198Z,37.30
2018-05-03T08:19:18.052Z,37.60
2018-05-03T08:21:46.935Z,38.30
2018-05-03T08:24:15.820Z,37.70
2018-05-03T08:26:44.687Z,36.90
2018-05-03T08:29:13.625Z,37.00
2018-05-03T08:31:42.491Z,37.20
2018-05-03T08:34:11.373Z,36.80
2018-05-03T08:36:41.037Z,36.40
2018-05-03T08:39:09.964Z,36.40
2018-05-03T08:41:38.877Z,36.60
2018-05-03T08:44:07.773Z,37.00
2018-05-03T08:46:36.689Z,36.50
2018-05-03T08:49:05.612Z,36.40
2018-05-03T08:51:35.307Z,36.20
2018-05-03T08:54:04.232Z,36.10
2018-05-03T08:56:33.114Z,35.30
2018-05-03T08:59:02.000Z,35.60
2018-05-03T09:01:31.001Z,36.60
2018-05-03T09:03:59.830Z,37.00
2018-05-03T09:06:28.754Z,35.60
2018-05-03T09:08:57.600Z,35.30
2018-05-03T09:11:26.491Z,34.00
2018-05-03T09:13:55.415Z,34.40
2018-05-03T09:16:24.444Z,34.60
2018-05-03T09:18:53.375Z,34.20
2018-05-03T09:21:22.306Z,33.80
2018-05-03T09:23:51.984Z,32.80
2018-05-03T09:26:20.850Z,32.80
2018-05-03T09:28:49.723Z,33.40
2018-05-03T09:31:18.749Z,34.30
2018-05-03T09:33:47.689Z,34.90
2018-05-03T09:36:17.381Z,36.90
2018-05-03T09:38:46.326Z,36.80
2018-05-03T09:41:15.205Z,36.90
2018-05-03T09:43:44.124Z,36.80
2018-05-03T09:46:13.034Z,37.10
2018-05-03T09:48:42.051Z,37.10
2018-05-03T09:51:11.724Z,37.70
2018-05-03T09:53:40.588Z,37.70
2018-05-03T09:56:09.618Z,37.90
2018-05-03T09:58:38.702Z,38.40
2018-05-03T10:01:07.654Z,37.80
2018-05-03T10:03:36.604Z,37.70
2018-05-03T10:06:05.816Z,37.80
2018-05-03T10:08:35.460Z,37.20
2018-05-03T10:11:04.366Z,37.10
2018-05-03T10:13:35.131Z,37.40
2018-05-03T10:16:05.071Z,37.00
2018-05-03T10:18:34.030Z,36.90
2018-05-03T10:21:02.911Z,36.70
2018-05-03T10:23:31.869Z,36.20
2018-05-03T10:26:00.763Z,36.30
2018-05-03T10:28:29.653Z,36.50
2018-05-03T10:30:58.531Z,36.70
2018-05-03T10:33:27.537Z,36.70
2018-05-03T10:35:56.540Z,36.70
2018-05-03T10:38:25.392Z,36.80
2018-05-03T10:40:54.342Z,37.10
2018-05-03T10:46:30.034Z,36.80
2018-05-03T10:48:59.498Z,37.00
2018-05-03T10:51:41.546Z,36.90
2018-05-03T10:57:08.492Z,36.70
2018-05-03T11:23:56.066Z,36.90
2018-05-03T11:26:24.924Z,36.70
2018-05-03T11:28:53.745Z,36.00
2018-05-03T11:31:22.690Z,36.10
2018-05-03T11:33:51.599Z,36.20
2018-05-03T11:36:20.510Z,36.40
2018-05-03T11:38:49.405Z,36.40
2018-05-03T11:44:13.636Z,36.40
2018-05-03T11:46:43.296Z,36.40
2018-05-03T11:49:12.180Z,36.30
2018-05-03T11:51:41.221Z,36.60
2018-05-03T11:54:10.924Z,36.70
2018-05-03T11:56:39.793Z,36.70
2018-05-03T11:59:08.847Z,36.70
2018-05-03T12:01:37.745Z,36.60
2018-05-03T12:04:06.672Z,36.10
2018-05-03T12:23:27.787Z,34.60
2018-05-03T12:25:56.620Z,33.60
2018-05-03T12:28:25.464Z,33.10
2018-05-03T12:30:54.333Z,33.20
2018-05-03T12:33:23.158Z,33.70
2018-05-03T12:35:52.073Z,34.10
2018-05-03T12:38:21.724Z,34.70
2018-05-03T12:40:50.576Z,34.60
2018-05-03T12:43:19.435Z,34.80
2018-05-03T12:45:48.261Z,34.70
2018-05-03T12:48:17.132Z,34.50
2018-05-03T12:50:46.725Z,34.80
2018-05-03T12:53:15.603Z,34.80
2018-05-03T12:55:44.458Z,34.60
2018-05-03T12:58:13.345Z,34.70
2018-05-03T13:00:42.367Z,34.40
2018-05-03T13:03:11.168Z,34.20
2018-05-03T13:05:40.082Z,34.20
2018-05-03T13:08:09.738Z,33.70
2018-05-03T13:10:38.639Z,33.60
2018-05-03T13:13:07.497Z,33.50
2018-05-03T13:15:36.370Z,33.10
2018-05-03T13:18:05.286Z,32.80
2018-05-03T13:20:34.936Z,32.30
2018-05-03T13:23:03.824Z,32.20
2018-05-03T13:25:32.743Z,32.20
2018-05-03T13:28:01.627Z,32.50
2018-05-03T13:30:30.490Z,32.80
2018-05-03T13:32:59.357Z,32.70
2018-05-03T13:35:28.212Z,32.60
2018-05-03T13:37:57.210Z,32.50
2018-05-03T13:40:26.095Z,32.60
2018-05-03T13:42:54.986Z,32.60
2018-05-03T13:45:23.926Z,32.50
2018-05-03T13:47:52.847Z,32.40
2018-05-03T13:50:21.743Z,32.20
2018-05-03T13:52:51.393Z,32.20
2018-05-03T13:55:20.382Z,32.20
2018-05-03T13:57:49.269Z,32.30
2018-05-03T14:00:18.156Z,32.30
2018-05-03T14:02:47.055Z,32.20
2018-05-03T14:05:15.966Z,32.20
2018-05-03T14:07:44.904Z,31.90
2018-05-03T14:10:13.826Z,31.70
2018-05-03T14:12:42.756Z,31.70
2018-05-03T14:15:11.687Z,31.60
2018-05-03T14:17:40.588Z,31.70
2018-05-03T14:20:09.562Z,31.60
2018-05-03T14:22:38.460Z,31.50
2018-05-03T14:25:07.375Z,31.40
2018-05-03T14:27:36.236Z,31.30
2018-05-03T14:30:05.177Z,31.20
2018-05-03T14:32:34.175Z,31.30
2018-05-03T14:35:03.069Z,31.30
2018-05-03T14:37:32.027Z,31.20
2018-05-03T14:40:01.010Z,31.20
2018-05-03T14:42:29.906Z,31.20
2018-05-03T14:44:58.810Z,31.10
2018-05-03T14:47:27.705Z,31.10
2018-05-03T14:49:56.627Z,31.00
2018-05-03T14:52:27.371Z,31.10
2018-05-03T14:54:56.282Z,31.00
2018-05-03T14:57:25.172Z,31.00
2018-05-03T14:59:54.070Z,30.90
2018-05-03T15:02:26.140Z,30.90
2018-05-03T15:04:56.635Z,30.90
2018-05-03T15:07:30.328Z,30.80
2018-05-03T15:10:00.300Z,30.80
2018-05-03T15:12:29.194Z,30.80
2018-05-03T15:14:58.075Z,30.80
2018-05-03T15:17:26.982Z,30.80
2018-05-03T15:19:55.931Z,30.90
2018-05-03T15:22:25.647Z,30.70
2018-05-03T15:24:54.541Z,30.60
2018-05-03T15:27:23.454Z,30.60
2018-05-03T15:29:52.361Z,30.50
2018-05-03T15:32:21.323Z,30.50
2018-05-03T15:34:50.225Z,30.40
2018-05-03T15:37:19.205Z,30.40
2018-05-03T15:39:48.157Z,30.20
2018-05-03T15:42:17.233Z,30.10
2018-05-03T15:44:46.140Z,30.10
2018-05-03T15:47:15.029Z,30.00
2018-05-03T15:49:43.951Z,29.80
2018-05-03T15:52:12.867Z,29.80
2018-05-03T15:54:41.868Z,29.70
2018-05-03T15:57:10.785Z,29.60
2018-05-03T15:59:39.686Z,29.50
2018-05-03T16:02:08.610Z,29.40
2018-05-03T16:04:37.527Z,29.40
2018-05-03T16:07:06.428Z,29.30
2018-05-03T16:09:35.337Z,29.20
2018-05-03T16:12:04.424Z,29.20
2018-05-03T16:14:33.343Z,29.20
2018-05-03T16:17:03.009Z,29.10
2018-05-03T16:19:32.530Z,29.10
2018-05-03T16:22:01.487Z,29.00
2018-05-03T16:24:30.493Z,29.00
2018-05-03T16:26:59.599Z,28.90
2018-05-03T16:29:28.515Z,28.80
2018-05-03T16:31:57.473Z,28.80
2018-05-03T16:34:26.479Z,28.70
2018-05-03T16:36:55.316Z,28.50
2018-05-03T16:39:24.244Z,28.40
2018-05-03T16:41:53.171Z,28.40
2018-05-03T16:44:22.197Z,28.30
2018-05-03T16:46:51.098Z,28.10
2018-05-03T16:49:20.710Z,28.00
2018-05-03T16:51:49.693Z,27.90
2018-05-03T16:54:18.604Z,27.90
2018-05-03T16:56:47.556Z,27.80
2018-05-03T16:59:17.315Z,27.60
2018-05-03T17:01:46.212Z,27.60
2018-05-03T17:04:15.082Z,27.60
2018-05-03T17:06:43.998Z,27.50
2018-05-03T17:09:12.933Z,27.50
2018-05-03T17:11:41.940Z,27.40
2018-05-03T17:14:11.066Z,27.40
2018-05-03T17:16:40.012Z,27.40
2018-05-03T17:19:09.728Z,27.10
2018-05-03T17:21:39.412Z,27.00
2018-05-03T17:24:08.454Z,27.00
2018-05-03T17:26:37.449Z,27.00
2018-05-03T17:29:06.434Z,26.90
2018-05-03T17:31:35.447Z,26.80
2018-05-03T17:34:04.413Z,26.70
2018-05-03T17:36:33.363Z,26.70
2018-05-03T17:39:02.405Z,26.60
2018-05-03T17:41:31.514Z,26.60
2018-05-03T17:44:00.498Z,26.50
2018-05-03T17:46:30.053Z,26.50
2018-05-03T17:48:59.136Z,26.40
2018-05-03T17:51:28.213Z,26.40
2018-05-03T17:53:57.126Z,26.40
2018-05-03T17:56:26.101Z,26.40
2018-05-03T17:58:55.043Z,26.40
2018-05-03T18:01:24.781Z,26.20
2018-05-03T18:03:53.768Z,26.10
2018-05-03T18:06:22.732Z,26.10
2018-05-03T18:08:52.390Z,25.90
2018-05-03T18:11:21.332Z,25.80
2018-05-03T18:13:50.301Z,25.80
2018-05-03T18:16:19.351Z,25.80
2018-05-03T18:18:48.277Z,25.70
2018-05-03T18:21:17.270Z,25.60
2018-05-03T18:23:46.177Z,25.50
2018-05-03T18:26:15.248Z,25.50
2018-05-03T18:28:44.223Z,25.50
2018-05-03T18:31:13.210Z,25.50
2018-05-03T18:33:42.194Z,25.50
2018-05-03T18:36:11.062Z,25.40
2018-05-03T18:38:39.937Z,25.30
2018-05-03T18:41:09.714Z,25.20
2018-05-03T18:43:38.756Z,25.10
2018-05-03T18:46:08.359Z,25.10
2018-05-03T18:48:38.095Z,25.00
2018-05-03T18:51:07.014Z,25.00
2018-05-03T18:53:36.121Z,25.00
2018-05-03T18:56:05.980Z,24.60
2018-05-03T18:58:35.024Z,24.60
2018-05-03T19:01:03.980Z,24.50
2018-05-03T19:03:32.872Z,24.40
2018-05-03T19:06:01.744Z,24.30
2018-05-03T19:08:30.665Z,24.20
2018-05-03T19:10:59.649Z,24.10
2018-05-03T19:13:28.571Z,24.00
2018-05-03T19:15:57.478Z,24.00
2018-05-03T19:18:26.378Z,23.80
2018-05-03T19:20:56.079Z,23.60
2018-05-03T19:23:24.973Z,23.50
2018-05-03T19:25:54.774Z,23.50
2018-05-03T19:28:23.682Z,23.40
2018-05-03T19:30:53.380Z,23.40
2018-05-03T19:33:23.205Z,23.50
2018-05-03T19:35:52.118Z,23.40
2018-05-03T19:38:21.128Z,23.40
2018-05-03T19:40:50.018Z,23.40
2018-05-03T19:43:18.897Z,23.30
2018-05-03T19:45:47.882Z,23.30
2018-05-03T19:48:16.789Z,23.10
2018-05-03T19:50:45.748Z,23.00
2018-05-03T19:53:15.466Z,22.80
2018-05-03T19:55:44.380Z,22.70
2018-05-03T19:58:14.053Z,22.70
2018-05-03T20:00:43.838Z,22.70
2018-05-03T20:03:12.729Z,22.60
2018-05-03T20:06:00.609Z,22.60
2018-05-03T20:08:31.953Z,22.50
2018-05-03T20:11:00.844Z,22.50
2018-05-03T20:16:47.871Z,22.40
2018-05-03T20:19:17.575Z,22.40
2018-05-03T20:21:47.253Z,22.30
2018-05-03T20:24:16.152Z,22.30
2018-05-03T20:26:45.035Z,22.20
2018-05-03T20:29:13.981Z,22.20
2018-05-03T20:31:42.868Z,22.10
2018-05-03T20:34:11.806Z,22.10
2018-05-03T20:36:40.764Z,22.00
2018-05-03T20:39:09.655Z,21.90
2018-05-03T20:41:38.535Z,21.80
2018-05-03T20:44:07.523Z,21.70
2018-05-03T20:46:36.409Z,21.60
2018-05-03T20:49:05.331Z,21.60
2018-05-03T20:51:34.287Z,21.50
2018-05-03T20:54:03.971Z,21.30
2018-05-03T20:56:32.888Z,21.30
2018-05-03T20:59:01.739Z,21.30
2018-05-03T21:01:30.600Z,21.20
2018-05-03T21:03:59.521Z,21.00
2018-05-03T21:06:28.490Z,20.90
2018-05-03T21:08:57.385Z,20.90
2018-05-03T21:11:26.784Z,20.80
2018-05-03T21:13:55.746Z,20.70
2018-05-03T21:16:24.668Z,20.70
2018-05-03T21:18:53.561Z,20.70
2018-05-03T21:21:22.466Z,20.60
2018-05-03T21:23:51.357Z,20.50
2018-05-03T21:26:20.360Z,20.50
2018-05-03T21:28:49.973Z,20.40
2018-05-03T21:31:18.911Z,20.30
2018-05-03T21:33:47.805Z,20.40
2018-05-03T21:36:17.927Z,20.40
2018-05-03T21:38:46.841Z,20.30
2018-05-03T21:41:15.786Z,20.20
2018-05-03T21:43:44.653Z,20.20
2018-05-03T21:46:13.586Z,20.20
2018-05-03T21:48:42.492Z,20.20
2018-05-03T21:51:11.432Z,20.20
2018-05-03T21:53:40.365Z,20.10
2018-05-03T21:56:09.784Z,20.00
2018-05-03T21:58:38.709Z,20.00
2018-05-03T22:01:08.406Z,20.00
2018-05-03T22:03:37.284Z,19.90
2018-05-03T22:06:06.282Z,19.90
2018-05-03T22:08:35.171Z,19.90
2018-05-03T22:11:04.060Z,19.90
2018-05-03T22:13:32.970Z,19.80
2018-05-03T22:16:01.898Z,19.80
2018-05-03T22:18:30.807Z,19.70
2018-05-03T22:20:59.750Z,19.60
2018-05-03T22:23:28.658Z,19.50
2018-05-03T22:25:57.560Z,19.40
2018-05-03T22:28:26.462Z,19.50
2018-05-03T22:30:55.342Z,19.50
2018-05-03T22:33:24.239Z,19.50
2018-05-03T22:35:53.116Z,19.50
2018-05-03T22:38:23.101Z,19.50
2018-05-03T22:40:52.827Z,19.50
2018-05-03T22:43:21.661Z,19.40
2018-05-03T22:45:50.541Z,19.50
2018-05-03T22:48:20.206Z,19.50
2018-05-03T22:50:49.894Z,19.40
2018-05-03T22:53:18.803Z,19.30
2018-05-03T22:55:48.477Z,19.20
2018-05-03T22:58:17.422Z,19.20
2018-05-03T23:00:46.330Z,19.20
2018-05-03T23:03:15.210Z,19.10
2018-05-03T23:05:44.107Z,19.00
2018-05-03T23:08:13.034Z,19.00
2018-05-03T23:10:41.912Z,18.90
2018-05-03T23:13:10.848Z,18.90
2018-05-03T23:15:40.518Z,18.80
2018-05-03T23:18:09.413Z,18.70
2018-05-03T23:20:38.317Z,18.80
2018-05-03T23:23:07.210Z,18.80
2018-05-03T23:25:36.084Z,18.80
2018-05-03T23:28:05.026Z,18.70
2018-05-03T23:30:33.916Z,18.70
2018-05-03T23:33:02.810Z,18.60
2018-05-03T23:35:31.723Z,18.60
2018-05-03T23:38:00.594Z,18.60
2018-05-03T23:40:29.477Z,18.60
2018-05-03T23:42:58.377Z,18.60
2018-05-03T23:45:27.246Z,18.50
2018-05-03T23:47:56.144Z,18.50
2018-05-03T23:50:25.025Z,18.50
2018-05-03T23:52:53.958Z,18.50
2018-05-03T23:55:22.920Z,18.50
2018-05-03T23:57:51.897Z,18.40
